ADDS METAR Data INFO
IDs: Format: Raw Decoded Include TAF

Data at: 1937 UTC 19 Jul 2018

KSDB 191853Z AUTO 18012KT 10SM CLR 31/16 A3019 RMK AO2 SLP158 T03110156 $
KSDB 191753Z AUTO 21013KT 10SM CLR 28/16 A3020 RMK AO2 SLP164 T02780156 10278 20228 51006 $
KSDB 191653Z AUTO 18012KT 10SM CLR 27/15 A3019 RMK AO2 SLP161 T02670150 $
KSDB 191553Z AUTO 21008KT 10SM CLR 26/12 A3019 RMK AO2 SLP161 T02560117 $
KSDB 191453Z AUTO 21004KT 10SM CLR 24/11 A3018 RMK AO2 SLP159 T02390111 52008 $
KSDB 191353Z AUTO 29007KT 10SM CLR 25/06 A3017 RMK AO2 SLP150 T02500061 $
KSDB 191253Z AUTO 26006KT 10SM FEW120 23/07 A3016 RMK AO2 SLP149 T02280072 $
KSDB 191153Z AUTO 29005KT 10SM CLR 24/07 A3015 RMK AO2 SLP142 T02390072 10250 20217 55007 $
KSDB 191053Z AUTO 30010KT 10SM CLR 24/07 A3015 RMK AO2 SLP140 T02440072 $
KSDB 190953Z AUTO 28007KT 10SM CLR 23/11 A3016 RMK AO2 SLP146 T02330106 $
KSDB 190853Z AUTO 25006KT 10SM CLR 22/14 A3017 RMK AO2 SLP155 T02220144 58007 $
KSDB 190753Z AUTO 20005KT 10SM CLR 22/16 A3018 RMK AO2 SLP160 T02220156 403220194 $
KSDB 190653Z AUTO 23004KT 10SM CLR 23/15 A3020 RMK AO2 SLP163 T02330150 $
KSDB 190553Z AUTO 21008KT 10SM CLR 23/17 A3020 RMK AO2 SLP162 T02280167 10311 20228 51008 $
KSDB 190453Z AUTO 20008KT 10SM CLR 24/17 A3020 RMK AO2 SLP160 T02390167 $
KSDB 190353Z AUTO 21006KT 10SM CLR 24/16 A3018 RMK AO2 SLP157 T02440161 $
KSDB 190253Z AUTO 19011KT 10SM CLR 25/16 A3017 RMK AO2 SLP158 T02500161 55001 $
KSDB 190153Z AUTO 21009G16KT 10SM CLR 28/14 A3017 RMK AO2 SLP153 T02830139 $
KSDB 190053Z AUTO 20012G18KT 10SM CLR 29/14 A3016 RMK AO2 SLP148 T02940139 $
KSDB 182353Z AUTO 17012G21KT 10SM CLR 31/13 A3017 RMK AO2 SLP149 T03110133 10322 20233 58013 $
KSDB 182253Z AUTO 17012G18KT 10SM CLR 31/13 A3018 RMK AO2 SLP152 T03110128 $
KSDB 182153Z AUTO 18012KT 10SM CLR 31/14 A3021 RMK AO2 SLP160 T03110144 $
KSDB 182053Z AUTO 19010KT 10SM CLR 29/13 A3022 RMK AO2 RAE15 SLP166 T02890133 58002 $
KSDB 181953Z AUTO 24011KT 190V250 9SM -RA BKN110 26/12 A3022 RMK AO2 RAB50 SLP170 T02560117 $
KSDB 181853Z AUTO 20008KT 10SM CLR 27/12 A3023 RMK AO2 SLP171 T02670122 $
KSDB 181753Z AUTO 22009KT 10SM CLR 28/12 A3022 RMK AO2 SLP168 T02780117 10294 20194 53003 $
KSDB 181653Z AUTO VRB03KT 10SM CLR 29/07 A3021 RMK AO2 SLP162 T02890072 $
KSDB 181553Z AUTO VRB04KT 10SM CLR 26/08 A3021 RMK AO2 SLP167 T02610083 $
KSDB 181453Z AUTO 28007KT 10SM CLR 22/12 A3021 RMK AO2 SLP170 T02170122 51012 $
KSDB 181353Z AUTO 22006KT 10SM FEW110 22/10 A3020 RMK AO2 SLP162 T02170100 $
KSDB 181253Z AUTO 33013KT 10SM CLR 25/08 A3018 RMK AO2 PK WND 34028/1205 SLP152 T02500078 $
KSDB 181153Z AUTO 34017G25KT 10SM CLR 24/08 A3017 RMK AO2 PK WND 34026/1145 SLP146 T02440083 10267 20244 56000
KSDB 181053Z AUTO 34017G23KT 10SM CLR 25/08 A3017 RMK AO2 PK WND 34028/1022 SLP145 T02500083
KSDB 180953Z AUTO 34015KT 9SM CLR 24/09 A3017 RMK AO2 PK WND 34029/0859 SLP144 T02440089
KSDB 180853Z AUTO 36014G22KT 10SM CLR 26/08 A3017 RMK AO2 PK WND 35027/0843 SLP145 T02560083 58008
KSDB 180753Z AUTO 31013G24KT 10SM CLR 26/07 A3019 RMK AO2 SLP150 T02610067 403390228